sensor_id;sensor_type;location;lat;lon;timestamp;P1;durP1;ratioP1;P2;durP2;ratioP2
31760;SDS011;18335;51.486;7.562;2022-12-18T00:01:56;21.83;;;10.82;;
31760;SDS011;18335;51.486;7.562;2022-12-18T00:04:24;25.80;;;10.25;;
31760;SDS011;18335;51.486;7.562;2022-12-18T00:06:52;22.88;;;11.45;;
31760;SDS011;18335;51.486;7.562;2022-12-18T00:09:19;26.15;;;12.82;;
31760;SDS011;18335;51.486;7.562;2022-12-18T00:11:46;37.95;;;15.95;;
31760;SDS011;18335;51.486;7.562;2022-12-18T00:14:14;29.00;;;13.20;;
31760;SDS011;18335;51.486;7.562;2022-12-18T00:16:42;31.10;;;13.93;;
31760;SDS011;18335;51.486;7.562;2022-12-18T00:19:10;30.15;;;13.80;;
31760;SDS011;18335;51.486;7.562;2022-12-18T00:21:38;29.48;;;13.98;;
31760;SDS011;18335;51.486;7.562;2022-12-18T00:24:06;27.15;;;12.38;;
31760;SDS011;18335;51.486;7.562;2022-12-18T00:26:34;28.75;;;12.40;;
31760;SDS011;18335;51.486;7.562;2022-12-18T00:29:03;25.23;;;11.63;;
31760;SDS011;18335;51.486;7.562;2022-12-18T00:31:33;26.50;;;11.70;;
31760;SDS011;18335;51.486;7.562;2022-12-18T00:34:01;27.05;;;12.02;;
31760;SDS011;18335;51.486;7.562;2022-12-18T00:36:29;27.55;;;12.55;;
31760;SDS011;18335;51.486;7.562;2022-12-18T00:38:57;25.92;;;12.50;;
31760;SDS011;18335;51.486;7.562;2022-12-18T00:41:26;21.70;;;10.60;;
31760;SDS011;18335;51.486;7.562;2022-12-18T00:44:11;25.60;;;12.18;;
31760;SDS011;18335;51.486;7.562;2022-12-18T00:46:41;24.55;;;11.40;;
31760;SDS011;18335;51.486;7.562;2022-12-18T00:49:09;23.30;;;12.13;;
31760;SDS011;18335;51.486;7.562;2022-12-18T00:51:36;28.55;;;12.77;;
31760;SDS011;18335;51.486;7.562;2022-12-18T00:54:02;24.85;;;12.45;;
31760;SDS011;18335;51.486;7.562;2022-12-18T00:56:29;26.02;;;11.65;;
31760;SDS011;18335;51.486;7.562;2022-12-18T00:58:56;27.27;;;12.45;;
31760;SDS011;18335;51.486;7.562;2022-12-18T01:01:23;25.40;;;12.90;;
31760;SDS011;18335;51.486;7.562;2022-12-18T01:03:51;27.13;;;12.32;;
31760;SDS011;18335;51.486;7.562;2022-12-18T01:06:19;24.35;;;12.50;;
31760;SDS011;18335;51.486;7.562;2022-12-18T01:08:46;33.28;;;14.10;;
31760;SDS011;18335;51.486;7.562;2022-12-18T01:11:13;23.80;;;12.13;;
31760;SDS011;18335;51.486;7.562;2022-12-18T01:13:42;25.30;;;12.07;;
31760;SDS011;18335;51.486;7.562;2022-12-18T01:16:10;23.85;;;12.07;;
31760;SDS011;18335;51.486;7.562;2022-12-18T01:18:38;28.42;;;12.15;;
31760;SDS011;18335;51.486;7.562;2022-12-18T01:21:07;26.27;;;13.18;;
31760;SDS011;18335;51.486;7.562;2022-12-18T01:23:36;24.23;;;11.02;;
31760;SDS011;18335;51.486;7.562;2022-12-18T01:26:04;23.67;;;11.70;;
31760;SDS011;18335;51.486;7.562;2022-12-18T01:28:34;25.67;;;12.90;;
31760;SDS011;18335;51.486;7.562;2022-12-18T01:31:11;28.52;;;10.38;;
31760;SDS011;18335;51.486;7.562;2022-12-18T01:33:39;22.08;;;10.30;;
31760;SDS011;18335;51.486;7.562;2022-12-18T01:36:07;26.83;;;12.88;;
31760;SDS011;18335;51.486;7.562;2022-12-18T01:38:34;22.42;;;11.65;;
31760;SDS011;18335;51.486;7.562;2022-12-18T01:41:01;25.80;;;11.48;;
31760;SDS011;18335;51.486;7.562;2022-12-18T01:43:45;22.48;;;10.70;;
31760;SDS011;18335;51.486;7.562;2022-12-18T01:46:15;23.40;;;10.68;;
31760;SDS011;18335;51.486;7.562;2022-12-18T01:48:43;25.35;;;10.43;;
31760;SDS011;18335;51.486;7.562;2022-12-18T01:51:14;22.98;;;10.43;;
31760;SDS011;18335;51.486;7.562;2022-12-18T01:53:41;25.35;;;12.30;;
31760;SDS011;18335;51.486;7.562;2022-12-18T01:56:12;19.85;;;9.43;;
31760;SDS011;18335;51.486;7.562;2022-12-18T01:58:43;22.08;;;9.43;;
31760;SDS011;18335;51.486;7.562;2022-12-18T02:01:15;30.45;;;10.18;;
31760;SDS011;18335;51.486;7.562;2022-12-18T02:03:42;25.67;;;11.43;;
31760;SDS011;18335;51.486;7.562;2022-12-18T02:06:12;29.73;;;12.05;;
31760;SDS011;18335;51.486;7.562;2022-12-18T02:08:48;25.23;;;10.30;;
31760;SDS011;18335;51.486;7.562;2022-12-18T02:11:24;27.52;;;10.52;;
31760;SDS011;18335;51.486;7.562;2022-12-18T02:14:03;21.03;;;9.67;;
31760;SDS011;18335;51.486;7.562;2022-12-18T02:16:40;21.10;;;9.80;;
31760;SDS011;18335;51.486;7.562;2022-12-18T02:19:16;22.60;;;9.82;;
31760;SDS011;18335;51.486;7.562;2022-12-18T02:22:01;22.75;;;8.60;;
31760;SDS011;18335;51.486;7.562;2022-12-18T02:24:51;21.55;;;9.25;;
31760;SDS011;18335;51.486;7.562;2022-12-18T02:27:27;23.25;;;9.50;;
31760;SDS011;18335;51.486;7.562;2022-12-18T02:29:58;18.85;;;8.13;;
31760;SDS011;18335;51.486;7.562;2022-12-18T02:32:30;21.52;;;8.75;;
31760;SDS011;18335;51.486;7.562;2022-12-18T02:35:00;21.27;;;7.85;;
31760;SDS011;18335;51.486;7.562;2022-12-18T02:37:31;18.05;;;7.30;;
31760;SDS011;18335;51.486;7.562;2022-12-18T02:40:02;20.58;;;6.75;;
31760;SDS011;18335;51.486;7.562;2022-12-18T02:42:33;14.57;;;6.15;;
31760;SDS011;18335;51.486;7.562;2022-12-18T02:45:02;14.32;;;6.30;;
31760;SDS011;18335;51.486;7.562;2022-12-18T02:47:32;15.77;;;6.30;;
31760;SDS011;18335;51.486;7.562;2022-12-18T02:50:05;14.55;;;6.28;;
31760;SDS011;18335;51.486;7.562;2022-12-18T02:52:41;15.55;;;5.60;;
31760;SDS011;18335;51.486;7.562;2022-12-18T02:55:19;14.52;;;5.72;;
31760;SDS011;18335;51.486;7.562;2022-12-18T02:58:03;13.43;;;5.30;;
31760;SDS011;18335;51.486;7.562;2022-12-18T03:00:38;13.02;;;5.22;;
31760;SDS011;18335;51.486;7.562;2022-12-18T03:03:10;15.02;;;5.97;;
31760;SDS011;18335;51.486;7.562;2022-12-18T03:05:43;12.63;;;6.05;;
31760;SDS011;18335;51.486;7.562;2022-12-18T03:08:17;13.43;;;5.30;;
31760;SDS011;18335;51.486;7.562;2022-12-18T03:10:49;14.55;;;5.07;;
31760;SDS011;18335;51.486;7.562;2022-12-18T03:13:24;8.82;;;4.18;;
31760;SDS011;18335;51.486;7.562;2022-12-18T03:15:55;11.95;;;4.50;;
31760;SDS011;18335;51.486;7.562;2022-12-18T03:18:25;11.25;;;4.22;;
31760;SDS011;18335;51.486;7.562;2022-12-18T03:20:57;11.75;;;4.43;;
31760;SDS011;18335;51.486;7.562;2022-12-18T03:23:27;9.52;;;3.35;;
31760;SDS011;18335;51.486;7.562;2022-12-18T03:26:01;11.60;;;3.95;;
31760;SDS011;18335;51.486;7.562;2022-12-18T03:31:07;9.93;;;3.92;;
31760;SDS011;18335;51.486;7.562;2022-12-18T03:33:38;12.43;;;4.85;;
31760;SDS011;18335;51.486;7.562;2022-12-18T03:36:07;9.98;;;4.53;;
31760;SDS011;18335;51.486;7.562;2022-12-18T03:38:34;12.60;;;4.38;;
31760;SDS011;18335;51.486;7.562;2022-12-18T03:41:04;10.07;;;4.15;;
31760;SDS011;18335;51.486;7.562;2022-12-18T03:43:58;9.60;;;3.80;;
31760;SDS011;18335;51.486;7.562;2022-12-18T03:46:33;10.23;;;3.63;;
31760;SDS011;18335;51.486;7.562;2022-12-18T03:49:11;9.95;;;4.07;;
31760;SDS011;18335;51.486;7.562;2022-12-18T03:51:45;11.38;;;4.68;;
31760;SDS011;18335;51.486;7.562;2022-12-18T03:54:16;11.98;;;4.82;;
31760;SDS011;18335;51.486;7.562;2022-12-18T03:56:57;12.48;;;4.63;;
31760;SDS011;18335;51.486;7.562;2022-12-18T03:59:30;12.63;;;4.88;;
31760;SDS011;18335;51.486;7.562;2022-12-18T04:01:57;12.02;;;4.97;;
31760;SDS011;18335;51.486;7.562;2022-12-18T04:04:28;11.90;;;4.93;;
31760;SDS011;18335;51.486;7.562;2022-12-18T04:06:59;10.68;;;4.68;;
31760;SDS011;18335;51.486;7.562;2022-12-18T04:09:26;11.90;;;4.80;;
31760;SDS011;18335;51.486;7.562;2022-12-18T04:11:54;11.07;;;4.90;;
31760;SDS011;18335;51.486;7.562;2022-12-18T04:14:21;10.40;;;4.15;;
31760;SDS011;18335;51.486;7.562;2022-12-18T04:16:53;12.32;;;4.05;;
31760;SDS011;18335;51.486;7.562;2022-12-18T04:19:26;10.05;;;3.63;;
31760;SDS011;18335;51.486;7.562;2022-12-18T04:21:53;9.10;;;3.92;;
31760;SDS011;18335;51.486;7.562;2022-12-18T04:24:20;6.72;;;2.67;;
31760;SDS011;18335;51.486;7.562;2022-12-18T04:27:03;8.43;;;2.80;;
31760;SDS011;18335;51.486;7.562;2022-12-18T04:29:34;9.52;;;3.88;;
31760;SDS011;18335;51.486;7.562;2022-12-18T04:32:02;8.82;;;3.38;;
31760;SDS011;18335;51.486;7.562;2022-12-18T04:34:31;9.10;;;3.25;;
31760;SDS011;18335;51.486;7.562;2022-12-18T04:36:57;7.35;;;3.10;;
31760;SDS011;18335;51.486;7.562;2022-12-18T04:39:24;9.25;;;2.95;;
31760;SDS011;18335;51.486;7.562;2022-12-18T04:41:54;8.05;;;3.17;;
31760;SDS011;18335;51.486;7.562;2022-12-18T04:44:21;10.02;;;3.35;;
31760;SDS011;18335;51.486;7.562;2022-12-18T04:46:47;9.40;;;4.07;;
31760;SDS011;18335;51.486;7.562;2022-12-18T04:49:16;7.47;;;2.85;;
31760;SDS011;18335;51.486;7.562;2022-12-18T04:51:42;9.25;;;3.60;;
31760;SDS011;18335;51.486;7.562;2022-12-18T04:54:09;8.27;;;3.03;;
31760;SDS011;18335;51.486;7.562;2022-12-18T04:56:36;10.55;;;3.75;;
31760;SDS011;18335;51.486;7.562;2022-12-18T04:59:03;12.75;;;3.67;;
31760;SDS011;18335;51.486;7.562;2022-12-18T05:01:30;9.13;;;3.05;;
31760;SDS011;18335;51.486;7.562;2022-12-18T05:03:58;10.82;;;2.97;;
31760;SDS011;18335;51.486;7.562;2022-12-18T05:06:26;9.55;;;3.00;;
31760;SDS011;18335;51.486;7.562;2022-12-18T05:08:53;10.15;;;4.88;;
31760;SDS011;18335;51.486;7.562;2022-12-18T05:11:20;11.30;;;3.60;;
31760;SDS011;18335;51.486;7.562;2022-12-18T05:13:47;8.48;;;3.40;;
31760;SDS011;18335;51.486;7.562;2022-12-18T05:16:14;10.07;;;3.50;;
31760;SDS011;18335;51.486;7.562;2022-12-18T05:18:41;10.55;;;3.38;;
31760;SDS011;18335;51.486;7.562;2022-12-18T05:21:08;6.88;;;2.50;;
31760;SDS011;18335;51.486;7.562;2022-12-18T05:23:36;10.20;;;3.25;;
31760;SDS011;18335;51.486;7.562;2022-12-18T05:26:03;9.52;;;3.38;;
31760;SDS011;18335;51.486;7.562;2022-12-18T05:28:32;6.82;;;2.78;;
31760;SDS011;18335;51.486;7.562;2022-12-18T05:31:00;8.60;;;2.75;;
31760;SDS011;18335;51.486;7.562;2022-12-18T05:33:29;9.45;;;3.30;;
31760;SDS011;18335;51.486;7.562;2022-12-18T05:35:57;8.63;;;2.85;;
31760;SDS011;18335;51.486;7.562;2022-12-18T05:38:26;10.05;;;3.03;;
31760;SDS011;18335;51.486;7.562;2022-12-18T05:40:55;7.97;;;3.03;;
31760;SDS011;18335;51.486;7.562;2022-12-18T05:43:23;7.28;;;2.65;;
31760;SDS011;18335;51.486;7.562;2022-12-18T05:45:50;9.63;;;4.00;;
31760;SDS011;18335;51.486;7.562;2022-12-18T05:48:17;7.40;;;3.25;;
31760;SDS011;18335;51.486;7.562;2022-12-18T05:50:45;8.90;;;2.80;;
31760;SDS011;18335;51.486;7.562;2022-12-18T05:53:14;8.40;;;3.42;;
31760;SDS011;18335;51.486;7.562;2022-12-18T05:55:41;9.45;;;2.83;;
31760;SDS011;18335;51.486;7.562;2022-12-18T05:58:11;8.55;;;2.72;;
31760;SDS011;18335;51.486;7.562;2022-12-18T06:00:40;6.13;;;2.90;;
31760;SDS011;18335;51.486;7.562;2022-12-18T06:03:09;10.02;;;3.55;;
31760;SDS011;18335;51.486;7.562;2022-12-18T06:05:37;8.38;;;2.80;;
31760;SDS011;18335;51.486;7.562;2022-12-18T06:08:04;7.40;;;3.00;;
31760;SDS011;18335;51.486;7.562;2022-12-18T06:10:31;9.93;;;2.70;;
31760;SDS011;18335;51.486;7.562;2022-12-18T06:12:58;7.80;;;2.70;;
31760;SDS011;18335;51.486;7.562;2022-12-18T06:15:26;8.82;;;2.70;;
31760;SDS011;18335;51.486;7.562;2022-12-18T06:17:53;9.75;;;3.70;;
31760;SDS011;18335;51.486;7.562;2022-12-18T06:20:20;7.28;;;2.63;;
31760;SDS011;18335;51.486;7.562;2022-12-18T06:22:47;7.97;;;2.90;;
31760;SDS011;18335;51.486;7.562;2022-12-18T06:25:14;7.45;;;2.72;;
31760;SDS011;18335;51.486;7.562;2022-12-18T06:27:41;9.95;;;3.20;;
31760;SDS011;18335;51.486;7.562;2022-12-18T06:30:08;9.60;;;3.53;;
31760;SDS011;18335;51.486;7.562;2022-12-18T06:32:37;6.82;;;2.60;;
31760;SDS011;18335;51.486;7.562;2022-12-18T06:35:04;9.38;;;3.47;;
31760;SDS011;18335;51.486;7.562;2022-12-18T06:37:31;11.57;;;3.47;;
31760;SDS011;18335;51.486;7.562;2022-12-18T06:39:58;7.45;;;3.25;;
31760;SDS011;18335;51.486;7.562;2022-12-18T06:42:26;6.70;;;2.75;;
31760;SDS011;18335;51.486;7.562;2022-12-18T06:44:52;10.32;;;2.88;;
31760;SDS011;18335;51.486;7.562;2022-12-18T06:47:19;8.70;;;2.95;;
31760;SDS011;18335;51.486;7.562;2022-12-18T06:49:47;9.38;;;3.30;;
31760;SDS011;18335;51.486;7.562;2022-12-18T06:52:14;8.52;;;3.25;;
31760;SDS011;18335;51.486;7.562;2022-12-18T06:54:41;6.75;;;3.05;;
31760;SDS011;18335;51.486;7.562;2022-12-18T06:57:07;9.15;;;3.00;;
31760;SDS011;18335;51.486;7.562;2022-12-18T06:59:34;9.75;;;2.60;;
31760;SDS011;18335;51.486;7.562;2022-12-18T07:02:01;9.88;;;3.33;;
31760;SDS011;18335;51.486;7.562;2022-12-18T07:04:28;10.23;;;3.63;;
31760;SDS011;18335;51.486;7.562;2022-12-18T07:06:56;11.85;;;3.88;;
31760;SDS011;18335;51.486;7.562;2022-12-18T07:09:23;9.05;;;3.25;;
31760;SDS011;18335;51.486;7.562;2022-12-18T07:11:50;8.88;;;3.60;;
31760;SDS011;18335;51.486;7.562;2022-12-18T07:14:16;7.70;;;3.30;;
31760;SDS011;18335;51.486;7.562;2022-12-18T07:16:43;9.25;;;3.70;;
31760;SDS011;18335;51.486;7.562;2022-12-18T07:19:10;8.73;;;3.65;;
31760;SDS011;18335;51.486;7.562;2022-12-18T07:21:36;9.13;;;3.38;;
31760;SDS011;18335;51.486;7.562;2022-12-18T07:24:05;11.52;;;3.75;;
31760;SDS011;18335;51.486;7.562;2022-12-18T07:26:32;10.77;;;3.80;;
31760;SDS011;18335;51.486;7.562;2022-12-18T07:28:59;11.48;;;3.83;;
31760;SDS011;18335;51.486;7.562;2022-12-18T07:31:26;10.15;;;3.97;;
31760;SDS011;18335;51.486;7.562;2022-12-18T07:33:53;7.85;;;3.45;;
31760;SDS011;18335;51.486;7.562;2022-12-18T07:36:20;10.45;;;3.47;;
31760;SDS011;18335;51.486;7.562;2022-12-18T07:38:48;9.35;;;3.15;;
31760;SDS011;18335;51.486;7.562;2022-12-18T07:41:18;8.82;;;3.20;;
31760;SDS011;18335;51.486;7.562;2022-12-18T07:43:45;8.55;;;3.47;;
31760;SDS011;18335;51.486;7.562;2022-12-18T07:46:12;10.18;;;2.65;;
31760;SDS011;18335;51.486;7.562;2022-12-18T07:48:40;8.82;;;3.33;;
31760;SDS011;18335;51.486;7.562;2022-12-18T07:51:06;8.10;;;3.05;;
31760;SDS011;18335;51.486;7.562;2022-12-18T07:53:34;10.07;;;2.85;;
31760;SDS011;18335;51.486;7.562;2022-12-18T07:56:03;7.60;;;2.53;;
31760;SDS011;18335;51.486;7.562;2022-12-18T07:58:32;9.95;;;2.58;;
31760;SDS011;18335;51.486;7.562;2022-12-18T08:01:03;10.65;;;3.13;;
31760;SDS011;18335;51.486;7.562;2022-12-18T08:03:31;7.55;;;2.55;;
31760;SDS011;18335;51.486;7.562;2022-12-18T08:05:58;8.75;;;2.72;;
31760;SDS011;18335;51.486;7.562;2022-12-18T08:08:26;6.72;;;2.53;;
31760;SDS011;18335;51.486;7.562;2022-12-18T08:10:53;6.95;;;2.63;;
31760;SDS011;18335;51.486;7.562;2022-12-18T08:13:20;8.55;;;2.55;;
31760;SDS011;18335;51.486;7.562;2022-12-18T08:15:56;9.15;;;3.45;;
31760;SDS011;18335;51.486;7.562;2022-12-18T08:20:49;6.00;;;2.50;;
31760;SDS011;18335;51.486;7.562;2022-12-18T08:23:16;7.85;;;2.67;;
31760;SDS011;18335;51.486;7.562;2022-12-18T08:25:43;9.57;;;2.60;;
31760;SDS011;18335;51.486;7.562;2022-12-18T08:28:10;11.27;;;3.03;;
31760;SDS011;18335;51.486;7.562;2022-12-18T08:30:36;8.15;;;3.13;;
31760;SDS011;18335;51.486;7.562;2022-12-18T08:33:04;6.95;;;2.75;;
31760;SDS011;18335;51.486;7.562;2022-12-18T08:35:34;10.07;;;2.90;;
31760;SDS011;18335;51.486;7.562;2022-12-18T08:38:01;7.43;;;2.55;;
31760;SDS011;18335;51.486;7.562;2022-12-18T08:40:28;7.05;;;2.63;;
31760;SDS011;18335;51.486;7.562;2022-12-18T08:42:54;10.95;;;4.40;;
31760;SDS011;18335;51.486;7.562;2022-12-18T08:45:39;11.05;;;4.55;;
31760;SDS011;18335;51.486;7.562;2022-12-18T08:48:07;9.38;;;3.60;;
31760;SDS011;18335;51.486;7.562;2022-12-18T08:50:34;9.25;;;3.58;;
31760;SDS011;18335;51.486;7.562;2022-12-18T08:53:00;9.88;;;3.60;;
31760;SDS011;18335;51.486;7.562;2022-12-18T08:55:27;13.32;;;4.50;;
31760;SDS011;18335;51.486;7.562;2022-12-18T08:57:54;9.65;;;3.55;;
31760;SDS011;18335;51.486;7.562;2022-12-18T09:00:21;13.77;;;4.63;;
31760;SDS011;18335;51.486;7.562;2022-12-18T09:02:48;10.32;;;3.53;;
31760;SDS011;18335;51.486;7.562;2022-12-18T09:05:16;10.90;;;3.40;;
31760;SDS011;18335;51.486;7.562;2022-12-18T09:07:42;8.73;;;3.47;;
31760;SDS011;18335;51.486;7.562;2022-12-18T09:10:09;8.40;;;2.95;;
31760;SDS011;18335;51.486;7.562;2022-12-18T09:12:36;8.68;;;3.20;;
31760;SDS011;18335;51.486;7.562;2022-12-18T09:15:03;7.93;;;3.20;;
31760;SDS011;18335;51.486;7.562;2022-12-18T09:17:30;9.02;;;3.38;;
31760;SDS011;18335;51.486;7.562;2022-12-18T09:19:56;7.80;;;3.13;;
31760;SDS011;18335;51.486;7.562;2022-12-18T09:22:25;7.55;;;2.83;;
31760;SDS011;18335;51.486;7.562;2022-12-18T09:24:51;8.88;;;3.08;;
31760;SDS011;18335;51.486;7.562;2022-12-18T09:27:19;10.35;;;3.58;;
31760;SDS011;18335;51.486;7.562;2022-12-18T09:29:45;9.02;;;2.47;;
31760;SDS011;18335;51.486;7.562;2022-12-18T09:32:12;12.23;;;4.28;;
31760;SDS011;18335;51.486;7.562;2022-12-18T09:34:39;8.52;;;3.30;;
31760;SDS011;18335;51.486;7.562;2022-12-18T09:37:06;10.90;;;3.70;;
31760;SDS011;18335;51.486;7.562;2022-12-18T09:39:34;7.82;;;3.10;;
31760;SDS011;18335;51.486;7.562;2022-12-18T09:42:02;7.63;;;2.88;;
31760;SDS011;18335;51.486;7.562;2022-12-18T09:44:29;14.35;;;5.47;;
31760;SDS011;18335;51.486;7.562;2022-12-18T09:47:02;11.73;;;4.75;;
31760;SDS011;18335;51.486;7.562;2022-12-18T09:49:39;10.75;;;3.30;;
31760;SDS011;18335;51.486;7.562;2022-12-18T09:52:09;8.60;;;3.53;;
31760;SDS011;18335;51.486;7.562;2022-12-18T09:54:42;8.57;;;2.85;;
31760;SDS011;18335;51.486;7.562;2022-12-18T09:57:13;8.13;;;2.92;;
31760;SDS011;18335;51.486;7.562;2022-12-18T09:59:44;8.93;;;3.50;;
31760;SDS011;18335;51.486;7.562;2022-12-18T10:02:15;6.47;;;2.58;;
31760;SDS011;18335;51.486;7.562;2022-12-18T10:04:44;8.05;;;2.58;;
31760;SDS011;18335;51.486;7.562;2022-12-18T10:07:18;7.00;;;2.50;;
31760;SDS011;18335;51.486;7.562;2022-12-18T10:09:51;9.02;;;3.33;;
31760;SDS011;18335;51.486;7.562;2022-12-18T10:12:27;5.50;;;2.05;;
31760;SDS011;18335;51.486;7.562;2022-12-18T10:15:00;10.98;;;3.28;;
31760;SDS011;18335;51.486;7.562;2022-12-18T10:17:35;8.63;;;2.95;;
31760;SDS011;18335;51.486;7.562;2022-12-18T10:20:10;8.07;;;3.58;;
31760;SDS011;18335;51.486;7.562;2022-12-18T10:22:44;8.57;;;3.50;;
31760;SDS011;18335;51.486;7.562;2022-12-18T10:25:20;10.70;;;3.33;;
31760;SDS011;18335;51.486;7.562;2022-12-18T10:27:51;9.85;;;3.90;;
31760;SDS011;18335;51.486;7.562;2022-12-18T10:30:21;9.55;;;3.65;;
31760;SDS011;18335;51.486;7.562;2022-12-18T10:32:49;12.00;;;3.67;;
31760;SDS011;18335;51.486;7.562;2022-12-18T10:35:18;10.00;;;2.55;;
31760;SDS011;18335;51.486;7.562;2022-12-18T10:37:58;8.82;;;3.17;;
31760;SDS011;18335;51.486;7.562;2022-12-18T10:40:28;7.20;;;2.45;;
31760;SDS011;18335;51.486;7.562;2022-12-18T10:43:02;9.98;;;2.47;;
31760;SDS011;18335;51.486;7.562;2022-12-18T10:45:30;9.20;;;2.97;;
31760;SDS011;18335;51.486;7.562;2022-12-18T10:47:57;6.10;;;2.60;;
31760;SDS011;18335;51.486;7.562;2022-12-18T10:50:25;6.15;;;2.50;;
31760;SDS011;18335;51.486;7.562;2022-12-18T10:52:57;7.85;;;3.35;;
31760;SDS011;18335;51.486;7.562;2022-12-18T10:55:25;9.13;;;3.30;;
31760;SDS011;18335;51.486;7.562;2022-12-18T10:58:05;6.35;;;2.55;;
31760;SDS011;18335;51.486;7.562;2022-12-18T11:00:41;7.70;;;2.88;;
31760;SDS011;18335;51.486;7.562;2022-12-18T11:03:14;7.88;;;1.95;;
31760;SDS011;18335;51.486;7.562;2022-12-18T11:06:01;6.35;;;2.30;;
31760;SDS011;18335;51.486;7.562;2022-12-18T11:08:29;7.00;;;1.90;;
31760;SDS011;18335;51.486;7.562;2022-12-18T11:10:58;8.30;;;2.53;;
31760;SDS011;18335;51.486;7.562;2022-12-18T11:13:26;7.15;;;2.55;;
31760;SDS011;18335;51.486;7.562;2022-12-18T11:15:54;6.82;;;2.30;;
31760;SDS011;18335;51.486;7.562;2022-12-18T11:18:22;6.88;;;2.58;;
31760;SDS011;18335;51.486;7.562;2022-12-18T11:20:53;5.53;;;2.15;;
31760;SDS011;18335;51.486;7.562;2022-12-18T11:23:22;6.47;;;2.20;;
31760;SDS011;18335;51.486;7.562;2022-12-18T11:25:54;6.07;;;2.22;;
31760;SDS011;18335;51.486;7.562;2022-12-18T11:28:28;8.43;;;3.10;;
31760;SDS011;18335;51.486;7.562;2022-12-18T11:31:12;8.48;;;2.90;;
31760;SDS011;18335;51.486;7.562;2022-12-18T11:33:46;5.75;;;2.45;;
31760;SDS011;18335;51.486;7.562;2022-12-18T11:36:19;6.47;;;2.25;;
31760;SDS011;18335;51.486;7.562;2022-12-18T11:38:48;8.43;;;2.72;;
31760;SDS011;18335;51.486;7.562;2022-12-18T11:41:19;7.32;;;2.58;;
31760;SDS011;18335;51.486;7.562;2022-12-18T11:44:15;7.95;;;3.05;;
31760;SDS011;18335;51.486;7.562;2022-12-18T11:46:51;6.72;;;2.83;;
31760;SDS011;18335;51.486;7.562;2022-12-18T11:49:22;7.30;;;3.00;;
31760;SDS011;18335;51.486;7.562;2022-12-18T11:51:53;8.63;;;2.67;;
31760;SDS011;18335;51.486;7.562;2022-12-18T11:54:26;7.05;;;3.10;;
31760;SDS011;18335;51.486;7.562;2022-12-18T11:56:53;6.95;;;2.08;;
31760;SDS011;18335;51.486;7.562;2022-12-18T11:59:28;7.75;;;2.70;;
31760;SDS011;18335;51.486;7.562;2022-12-18T12:02:03;8.05;;;2.30;;
31760;SDS011;18335;51.486;7.562;2022-12-18T12:04:47;8.40;;;2.30;;
31760;SDS011;18335;51.486;7.562;2022-12-18T12:07:26;9.40;;;3.03;;
31760;SDS011;18335;51.486;7.562;2022-12-18T12:10:03;10.00;;;3.30;;
31760;SDS011;18335;51.486;7.562;2022-12-18T12:12:47;7.28;;;2.72;;
31760;SDS011;18335;51.486;7.562;2022-12-18T12:15:30;8.73;;;2.20;;
31760;SDS011;18335;51.486;7.562;2022-12-18T12:18:08;8.02;;;2.95;;
31760;SDS011;18335;51.486;7.562;2022-12-18T12:20:50;5.82;;;2.47;;
31760;SDS011;18335;51.486;7.562;2022-12-18T12:23:26;6.90;;;2.28;;
31760;SDS011;18335;51.486;7.562;2022-12-18T12:26:01;7.85;;;2.22;;
31760;SDS011;18335;51.486;7.562;2022-12-18T12:28:41;6.50;;;2.38;;
31760;SDS011;18335;51.486;7.562;2022-12-18T12:31:33;6.88;;;2.47;;
31760;SDS011;18335;51.486;7.562;2022-12-18T12:34:15;7.28;;;2.50;;
31760;SDS011;18335;51.486;7.562;2022-12-18T12:36:48;8.55;;;2.75;;
31760;SDS011;18335;51.486;7.562;2022-12-18T12:39:29;5.93;;;2.33;;
31760;SDS011;18335;51.486;7.562;2022-12-18T12:41:59;6.70;;;2.72;;
31760;SDS011;18335;51.486;7.562;2022-12-18T12:44:46;8.75;;;2.97;;
31760;SDS011;18335;51.486;7.562;2022-12-18T12:47:18;10.07;;;3.95;;
31760;SDS011;18335;51.486;7.562;2022-12-18T12:49:49;7.60;;;3.10;;
31760;SDS011;18335;51.486;7.562;2022-12-18T12:52:17;10.52;;;3.42;;
31760;SDS011;18335;51.486;7.562;2022-12-18T12:54:53;5.95;;;2.67;;
31760;SDS011;18335;51.486;7.562;2022-12-18T12:57:21;7.82;;;2.90;;
31760;SDS011;18335;51.486;7.562;2022-12-18T12:59:56;11.75;;;2.83;;
31760;SDS011;18335;51.486;7.562;2022-12-18T13:02:31;9.35;;;2.35;;
31760;SDS011;18335;51.486;7.562;2022-12-18T13:05:04;6.70;;;2.53;;
31760;SDS011;18335;51.486;7.562;2022-12-18T13:07:51;6.40;;;2.55;;
31760;SDS011;18335;51.486;7.562;2022-12-18T13:10:25;6.57;;;2.40;;
31760;SDS011;18335;51.486;7.562;2022-12-18T13:12:59;9.52;;;3.05;;
31760;SDS011;18335;51.486;7.562;2022-12-18T13:15:29;7.55;;;2.78;;
31760;SDS011;18335;51.486;7.562;2022-12-18T13:18:05;9.63;;;3.17;;
31760;SDS011;18335;51.486;7.562;2022-12-18T13:20:39;8.05;;;3.72;;
31760;SDS011;18335;51.486;7.562;2022-12-18T13:23:27;9.77;;;3.03;;
31760;SDS011;18335;51.486;7.562;2022-12-18T13:25:56;7.65;;;2.50;;
31760;SDS011;18335;51.486;7.562;2022-12-18T13:28:49;7.65;;;3.30;;
31760;SDS011;18335;51.486;7.562;2022-12-18T13:34:34;5.65;;;2.75;;
31760;SDS011;18335;51.486;7.562;2022-12-18T13:43:23;8.23;;;3.10;;
31760;SDS011;18335;51.486;7.562;2022-12-18T13:46:02;9.02;;;3.97;;
31760;SDS011;18335;51.486;7.562;2022-12-18T13:48:48;8.35;;;3.35;;
31760;SDS011;18335;51.486;7.562;2022-12-18T13:51:23;10.02;;;3.35;;
31760;SDS011;18335;51.486;7.562;2022-12-18T13:53:51;10.32;;;3.30;;
31760;SDS011;18335;51.486;7.562;2022-12-18T13:56:22;9.80;;;3.20;;
31760;SDS011;18335;51.486;7.562;2022-12-18T13:59:03;12.55;;;3.88;;
31760;SDS011;18335;51.486;7.562;2022-12-18T14:01:33;8.98;;;3.95;;
31760;SDS011;18335;51.486;7.562;2022-12-18T14:04:08;8.95;;;3.75;;
31760;SDS011;18335;51.486;7.562;2022-12-18T14:06:37;9.18;;;3.88;;
31760;SDS011;18335;51.486;7.562;2022-12-18T14:09:04;10.77;;;4.10;;
31760;SDS011;18335;51.486;7.562;2022-12-18T14:11:31;15.05;;;3.95;;
31760;SDS011;18335;51.486;7.562;2022-12-18T14:13:59;13.70;;;3.70;;
31760;SDS011;18335;51.486;7.562;2022-12-18T14:16:28;12.82;;;3.88;;
31760;SDS011;18335;51.486;7.562;2022-12-18T14:18:55;14.23;;;4.60;;
31760;SDS011;18335;51.486;7.562;2022-12-18T14:21:24;11.65;;;4.90;;
31760;SDS011;18335;51.486;7.562;2022-12-18T14:24:12;9.98;;;4.50;;
31760;SDS011;18335;51.486;7.562;2022-12-18T14:26:41;17.25;;;5.93;;
31760;SDS011;18335;51.486;7.562;2022-12-18T14:29:18;12.38;;;5.00;;
31760;SDS011;18335;51.486;7.562;2022-12-18T14:32:05;18.50;;;6.05;;
31760;SDS011;18335;51.486;7.562;2022-12-18T14:34:33;13.20;;;4.97;;
31760;SDS011;18335;51.486;7.562;2022-12-18T14:37:00;13.18;;;5.43;;
31760;SDS011;18335;51.486;7.562;2022-12-18T14:39:28;18.13;;;6.05;;
31760;SDS011;18335;51.486;7.562;2022-12-18T14:41:55;14.70;;;6.07;;
31760;SDS011;18335;51.486;7.562;2022-12-18T14:44:21;13.70;;;5.38;;
31760;SDS011;18335;51.486;7.562;2022-12-18T14:46:48;24.33;;;8.32;;
31760;SDS011;18335;51.486;7.562;2022-12-18T14:49:21;16.13;;;6.45;;
31760;SDS011;18335;51.486;7.562;2022-12-18T14:51:52;11.77;;;5.97;;
31760;SDS011;18335;51.486;7.562;2022-12-18T14:54:20;16.05;;;5.53;;
31760;SDS011;18335;51.486;7.562;2022-12-18T14:56:50;11.93;;;5.50;;
31760;SDS011;18335;51.486;7.562;2022-12-18T14:59:21;14.13;;;5.90;;
31760;SDS011;18335;51.486;7.562;2022-12-18T15:01:57;11.95;;;6.70;;
31760;SDS011;18335;51.486;7.562;2022-12-18T15:04:27;12.85;;;5.53;;
31760;SDS011;18335;51.486;7.562;2022-12-18T15:07:04;15.80;;;6.30;;
31760;SDS011;18335;51.486;7.562;2022-12-18T15:09:34;13.95;;;5.68;;
31760;SDS011;18335;51.486;7.562;2022-12-18T15:12:02;13.70;;;6.47;;
31760;SDS011;18335;51.486;7.562;2022-12-18T15:14:33;15.00;;;6.40;;
31760;SDS011;18335;51.486;7.562;2022-12-18T15:17:02;15.48;;;7.13;;